Time;durP1;ratioP1;P1;durP2;ratioP2;P2;SDS_P1;SDS_P2;PMS_P1;PMS_P2;Temp;Humidity;BMP_temperature;BMP_pressure;BME280_temperature;BME280_humidity;BME280_pressure;Samples;Min_cycle;Max_cycle;Signal;HPM_P1;HPM_P2
2023/03/18 00:01:03;;;;;;;7.28;3.40;;;;;;;9.71;40.74;101290.28;4970368;29;20054;-80
2023/03/18 00:03:30;;;;;;;9.68;2.58;;;;;;;9.71;40.65;101275.03;4981040;28;20156;-80
2023/03/18 00:06:06;;;;;;;16.33;3.17;;;;;;;9.71;41.08;101268.81;4977313;28;20045;-82
2023/03/18 00:08:32;;;;;;;3.72;2.40;;;;;;;9.70;40.49;101267.94;4971931;28;20391;-83
2023/03/18 00:10:58;;;;;;;9.88;3.67;;;;;;;9.51;40.63;101270.13;4974448;28;20447;-82
2023/03/18 00:13:24;;;;;;;9.45;3.10;;;;;;;9.44;41.15;101260.78;4973047;28;20031;-82
2023/03/18 00:15:53;;;;;;;7.22;2.95;;;;;;;9.48;41.10;101272.19;4973644;28;20027;-82
2023/03/18 00:18:19;;;;;;;6.05;2.30;;;;;;;9.49;41.14;101269.38;4973286;28;20030;-81
2023/03/18 00:20:45;;;;;;;12.52;2.80;;;;;;;9.22;41.30;101266.69;4972265;28;20035;-81
2023/03/18 00:23:11;;;;;;;20.45;3.38;;;;;;;9.21;41.66;101264.09;4971001;28;20114;-82
2023/03/18 00:25:38;;;;;;;8.85;2.67;;;;;;;9.20;41.66;101268.59;4972494;28;20117;-83
2023/03/18 00:28:05;;;;;;;6.05;2.50;;;;;;;9.25;41.82;101273.69;4973053;28;20568;-80
2023/03/18 00:30:33;;;;;;;5.53;2.65;;;;;;;9.25;41.59;101265.63;4973323;28;20035;-82
2023/03/18 00:32:59;;;;;;;6.25;2.90;;;;;;;9.10;41.59;101262.13;4972554;28;20101;-82
2023/03/18 00:35:26;;;;;;;6.72;3.22;;;;;;;9.11;42.18;101263.00;4972166;28;20030;-81
2023/03/18 00:37:54;;;;;;;7.20;2.53;;;;;;;9.14;41.75;101262.81;4979894;28;20166;-81
2023/03/18 00:40:26;;;;;;;4.43;2.78;;;;;;;9.02;41.99;101253.69;4952665;28;20054;-83
2023/03/18 00:42:56;;;;;;;10.13;3.20;;;;;;;9.04;42.26;101262.53;4974861;28;20042;-81
2023/03/18 00:45:23;;;;;;;5.50;2.78;;;;;;;8.95;41.85;101256.91;4955123;28;20047;-81
2023/03/18 00:47:49;;;;;;;7.40;2.72;;;;;;;8.85;42.37;101255.75;4953648;28;20043;-81
2023/03/18 00:50:15;;;;;;;10.43;3.00;;;;;;;8.87;42.27;101241.28;4952998;28;20125;-81
2023/03/18 00:52:40;;;;;;;6.45;3.03;;;;;;;9.02;42.35;101261.75;4953045;28;20035;-81
2023/03/18 00:55:07;;;;;;;9.57;3.08;;;;;;;9.04;42.01;101245.56;4954262;28;20042;-82
2023/03/18 00:57:33;;;;;;;14.43;3.65;;;;;;;9.00;42.53;101254.78;4953492;28;20039;-83
2023/03/18 00:59:58;;;;;;;7.22;2.88;;;;;;;8.94;42.61;101266.75;4952933;28;20447;-83
2023/03/18 01:02:24;;;;;;;11.00;3.75;;;;;;;8.94;42.87;101255.16;4953336;29;20031;-83
2023/03/18 01:04:50;;;;;;;5.05;2.70;;;;;;;8.97;42.73;101255.84;4952197;28;20038;-81
2023/03/18 01:07:15;;;;;;;6.55;3.13;;;;;;;8.96;42.87;101245.22;4966202;28;20087;-78
2023/03/18 01:09:42;;;;;;;6.93;3.78;;;;;;;9.08;42.86;101255.16;4976799;28;20064;-79
2023/03/18 01:12:09;;;;;;;14.25;3.60;;;;;;;9.02;42.68;101253.69;4973928;28;20058;-81
2023/03/18 01:14:38;;;;;;;8.70;2.97;;;;;;;9.03;42.93;101254.56;4958876;28;20151;-82
2023/03/18 01:17:06;;;;;;;7.72;3.17;;;;;;;8.97;43.29;101249.59;4961012;28;20454;-80
2023/03/18 01:19:32;;;;;;;9.27;3.40;;;;;;;8.91;43.26;101255.38;4972610;28;20043;-82
2023/03/18 01:21:58;;;;;;;13.18;3.38;;;;;;;8.91;43.44;101250.00;4970314;28;20038;-83
2023/03/18 01:24:24;;;;;;;8.18;3.50;;;;;;;8.91;43.53;101252.69;4972044;28;20023;-82
2023/03/18 01:26:49;;;;;;;5.40;2.80;;;;;;;8.92;43.50;101257.09;4971819;28;20042;-81
2023/03/18 01:29:15;;;;;;;8.15;3.72;;;;;;;8.87;43.76;101248.50;4971917;28;20123;-82
2023/03/18 01:31:40;;;;;;;12.25;3.28;;;;;;;8.97;43.90;101241.56;4971393;28;20035;-82
2023/03/18 01:34:06;;;;;;;7.05;2.78;;;;;;;8.99;43.86;101245.03;4971632;28;20030;-84
2023/03/18 01:36:32;;;;;;;6.47;3.10;;;;;;;8.98;44.13;101246.84;4979833;28;20038;-81
2023/03/18 01:38:58;;;;;;;13.65;3.40;;;;;;;8.96;43.93;101235.31;4985536;28;20077;-79
2023/03/18 01:41:27;;;;;;;9.68;3.47;;;;;;;8.90;44.21;101243.75;4979343;28;20031;-82
2023/03/18 01:43:54;;;;;;;6.80;3.08;;;;;;;8.99;43.97;101242.34;4971693;28;20054;-83
2023/03/18 01:46:43;;;;;;;7.55;3.40;;;;;;;8.97;44.21;101249.59;4972329;28;20106;-83
2023/03/18 01:49:23;;;;;;;10.25;3.42;;;;;;;9.02;44.70;101258.22;4972217;28;20035;-83
2023/03/18 01:51:56;;;;;;;10.75;4.47;;;;;;;9.02;44.46;101247.50;4972247;28;20035;-80
2023/03/18 01:54:24;;;;;;;7.50;3.22;;;;;;;9.07;44.71;101246.25;4971921;28;20509;-81
2023/03/18 01:56:52;;;;;;;5.90;3.05;;;;;;;9.02;44.15;101247.50;4972275;28;20065;-83
2023/03/18 01:59:21;;;;;;;4.18;2.83;;;;;;;8.92;44.66;101241.00;4972157;28;20073;-82
2023/03/18 02:02:01;;;;;;;10.32;3.60;;;;;;;9.04;44.18;101261.66;4972376;28;20030;-81
2023/03/18 02:04:33;;;;;;;9.88;3.70;;;;;;;8.91;44.80;101255.38;4953317;28;20034;-83
2023/03/18 02:07:00;;;;;;;8.98;3.03;;;;;;;8.87;45.19;101269.97;4972225;28;20512;-80
2023/03/18 02:09:25;;;;;;;6.30;3.65;;;;;;;8.90;45.11;101259.88;4971996;28;21189;-82
2023/03/18 02:11:51;;;;;;;9.75;4.32;;;;;;;8.84;44.63;101257.56;4972176;28;20033;-82
2023/03/18 02:14:20;;;;;;;5.43;3.22;;;;;;;8.77;44.82;101260.75;4972302;28;20031;-82
2023/03/18 02:16:56;;;;;;;7.43;3.33;;;;;;;8.84;45.12;101262.09;4971900;28;20027;-82
2023/03/18 02:19:27;;;;;;;7.32;3.13;;;;;;;8.70;44.72;101245.06;4972098;28;20494;-82
2023/03/18 02:22:24;;;;;;;5.72;3.00;;;;;;;8.63;44.78;101248.22;4971996;28;20133;-82
2023/03/18 02:25:08;;;;;;;6.32;3.35;;;;;;;8.51;45.63;101263.25;4971716;28;20037;-82
2023/03/18 02:27:38;;;;;;;8.30;3.15;;;;;;;8.41;45.72;101251.38;4971432;28;20443;-81
2023/03/18 02:30:25;;;;;;;8.00;3.40;;;;;;;8.32;45.82;101246.59;4971882;28;20030;-83
2023/03/18 02:32:53;;;;;;;7.80;3.47;;;;;;;8.29;45.79;101246.78;4971286;28;20035;-82
2023/03/18 02:35:19;;;;;;;5.10;3.50;;;;;;;8.32;46.23;101246.59;4980174;28;20109;-81
2023/03/18 02:37:45;;;;;;;4.63;3.08;;;;;;;8.30;45.89;101253.88;4984575;28;20027;-82
2023/03/18 02:40:29;;;;;;;9.80;3.38;;;;;;;8.05;46.87;101242.91;4980929;28;20027;-82
2023/03/18 02:42:56;;;;;;;13.18;4.88;;;;;;;8.11;46.32;101242.53;4971718;28;20078;-82
2023/03/18 02:45:57;;;;;;;9.20;3.15;;;;;;;8.06;47.01;101250.88;4971299;28;20097;-82
2023/03/18 02:48:29;;;;;;;7.68;3.97;;;;;;;7.89;46.71;101237.63;4971367;28;20030;-81
2023/03/18 02:50:56;;;;;;;8.98;3.85;;;;;;;7.98;47.65;101254.97;4971378;28;20517;-80
2023/03/18 02:53:21;;;;;;;7.00;3.47;;;;;;;7.92;47.26;101252.66;4971406;28;20030;-82
2023/03/18 02:55:47;;;;;;;12.55;4.75;;;;;;;7.86;46.65;101242.34;4971471;28;20414;-82
2023/03/18 02:58:12;;;;;;;10.30;4.30;;;;;;;7.84;47.02;101250.44;4971308;28;20113;-80
2023/03/18 03:00:38;;;;;;;9.27;3.58;;;;;;;7.86;47.01;101245.84;4970904;28;20058;-80
2023/03/18 03:03:04;;;;;;;12.52;4.00;;;;;;;7.91;47.27;101251.81;4971393;28;20105;-84
2023/03/18 03:05:30;;;;;;;10.27;3.80;;;;;;;7.75;47.27;101247.44;4970977;28;20023;-82
2023/03/18 03:07:55;;;;;;;5.82;3.65;;;;;;;7.70;47.19;101252.22;4971685;28;20037;-80
2023/03/18 03:10:21;;;;;;;9.73;4.45;;;;;;;7.62;47.34;101253.53;4971000;28;20023;-81
2023/03/18 03:12:46;;;;;;;9.20;4.13;;;;;;;7.60;47.69;101257.25;4970976;28;20038;-81
2023/03/18 03:15:13;;;;;;;11.02;4.03;;;;;;;7.66;47.42;101255.09;4971153;28;20046;-82
2023/03/18 03:17:40;;;;;;;10.85;4.20;;;;;;;7.65;47.39;101261.38;4971377;28;20054;-81
2023/03/18 03:20:07;;;;;;;6.85;3.30;;;;;;;7.58;47.46;101262.69;4971000;28;20031;-81
2023/03/18 03:22:33;;;;;;;7.45;3.88;;;;;;;7.53;47.35;101248.72;4970963;28;20101;-83
2023/03/18 03:25:00;;;;;;;7.32;4.00;;;;;;;7.50;47.86;101242.69;4970719;28;21164;-83
2023/03/18 03:27:26;;;;;;;13.13;3.90;;;;;;;7.43;47.54;101255.56;4971197;28;20035;-81
2023/03/18 03:29:52;;;;;;;12.35;4.15;;;;;;;7.36;47.80;101248.88;4970729;28;20065;-82
2023/03/18 03:32:18;;;;;;;5.63;3.45;;;;;;;7.33;47.97;101245.50;4970645;28;20478;-82
2023/03/18 03:34:44;;;;;;;5.38;2.75;;;;;;;7.29;48.02;101250.16;4976271;28;20057;-80
2023/03/18 03:37:09;;;;;;;7.60;3.55;;;;;;;7.25;47.82;101245.91;4982888;28;20065;-81
2023/03/18 03:39:35;;;;;;;8.38;3.30;;;;;;;7.36;47.49;101243.50;4958467;28;20039;-81
2023/03/18 03:42:00;;;;;;;6.38;3.63;;;;;;;7.37;47.49;101244.38;4971073;28;20397;-82
2023/03/18 03:44:25;;;;;;;5.75;3.80;;;;;;;7.25;47.84;101235.22;4970460;28;20042;-82
2023/03/18 03:46:51;;;;;;;6.82;3.17;;;;;;;7.37;47.66;101261.25;4971013;28;20031;-82
2023/03/18 03:49:17;;;;;;;10.77;3.67;;;;;;;7.38;47.40;101252.28;4970794;28;20453;-82
2023/03/18 03:51:43;;;;;;;8.73;4.18;;;;;;;7.34;47.14;101253.41;4970665;28;20062;-80
2023/03/18 03:54:12;;;;;;;10.60;4.20;;;;;;;7.24;47.96;101262.94;4971085;28;20026;-82
2023/03/18 03:56:38;;;;;;;6.10;3.47;;;;;;;7.31;47.52;101261.63;4971159;28;20042;-81
2023/03/18 03:59:03;;;;;;;4.93;3.20;;;;;;;7.20;48.13;101257.84;4971710;28;20054;-82
2023/03/18 04:01:29;;;;;;;12.32;4.28;;;;;;;7.20;47.64;101273.91;4969036;28;20047;-83
2023/03/18 04:03:55;;;;;;;23.67;6.57;;;;;;;7.20;47.57;101269.41;4952829;28;20045;-81
2023/03/18 04:06:20;;;;;;;24.50;5.20;;;;;;;7.14;47.78;101269.75;4971484;28;20026;-82
2023/03/18 04:08:46;;;;;;;8.07;4.00;;;;;;;7.09;47.83;101269.19;4971391;28;20057;-82
2023/03/18 04:11:11;;;;;;;11.68;4.00;;;;;;;7.14;47.49;101269.75;4980581;28;20026;-82
2023/03/18 04:13:37;;;;;;;8.60;4.50;;;;;;;7.00;48.09;101264.34;4987569;28;20042;-80
2023/03/18 04:16:02;;;;;;;10.95;4.35;;;;;;;6.95;48.08;101264.59;4990215;28;20097;-79
2023/03/18 04:18:28;;;;;;;15.43;4.43;;;;;;;6.81;48.21;101269.00;4982543;28;20076;-82
2023/03/18 04:20:53;;;;;;;9.90;3.95;;;;;;;6.84;48.20;101263.47;4970484;28;20412;-83
2023/03/18 04:23:19;;;;;;;25.63;6.72;;;;;;;6.64;48.56;101240.50;4971441;28;20502;-81
2023/03/18 04:25:46;;;;;;;13.65;4.57;;;;;;;6.74;48.88;101255.09;4970635;28;20034;-82
2023/03/18 04:28:12;;;;;;;11.23;4.78;;;;;;;6.79;48.04;101262.88;4969910;28;20469;-83
2023/03/18 04:30:38;;;;;;;12.57;4.50;;;;;;;6.69;48.10;101256.31;4970468;28;20221;-82
2023/03/18 04:33:04;;;;;;;10.93;4.28;;;;;;;6.53;48.24;101257.16;4971250;28;20085;-82
2023/03/18 04:35:29;;;;;;;8.55;4.70;;;;;;;6.63;48.10;101268.19;4986032;28;20030;-80
2023/03/18 04:37:58;;;;;;;13.07;4.47;;;;;;;6.58;48.52;101256.88;4984259;28;20047;-80
2023/03/18 04:40:24;;;;;;;15.65;6.18;;;;;;;6.69;48.14;101267.00;4972024;28;20031;-81
2023/03/18 04:42:49;;;;;;;9.23;4.28;;;;;;;6.71;47.59;101275.78;4969849;28;20031;-83
2023/03/18 04:45:16;;;;;;;15.00;4.90;;;;;;;6.82;48.15;101268.88;4969731;28;20029;-82
2023/03/18 04:47:43;;;;;;;10.00;4.13;;;;;;;6.81;47.91;101267.19;4969868;28;20406;-82
2023/03/18 04:50:11;;;;;;;12.05;4.18;;;;;;;6.88;47.72;101270.38;4968133;28;20471;-82
2023/03/18 04:52:38;;;;;;;14.40;4.63;;;;;;;6.89;47.91;101275.63;4969481;28;20030;-81
2023/03/18 04:55:04;;;;;;;15.73;4.88;;;;;;;6.77;48.05;101268.28;4970177;28;20117;-81
2023/03/18 04:57:30;;;;;;;10.02;4.40;;;;;;;6.64;47.91;101259.22;4970071;28;20073;-82
2023/03/18 04:59:57;;;;;;;12.70;5.07;;;;;;;6.64;48.33;101271.72;4973383;28;20054;-82
2023/03/18 05:02:23;;;;;;;15.75;4.95;;;;;;;6.60;48.71;101273.72;4972969;28;20110;-83
2023/03/18 05:04:48;;;;;;;17.63;4.97;;;;;;;6.54;48.45;101269.53;4973029;28;20046;-81
2023/03/18 05:07:15;;;;;;;20.17;6.32;;;;;;;6.60;48.41;101267.50;4973201;28;20026;-81
2023/03/18 05:09:42;;;;;;;22.88;7.90;;;;;;;6.62;48.78;101269.13;4973243;28;20051;-81
2023/03/18 05:12:15;;;;;;;15.13;4.85;;;;;;;6.67;48.69;101268.88;4973905;28;20019;-82
2023/03/18 05:14:44;;;;;;;24.48;4.47;;;;;;;6.70;48.46;101276.72;4973327;28;20041;-83
2023/03/18 05:17:16;;;;;;;18.67;5.85;;;;;;;6.78;48.44;101279.84;4972878;28;20027;-82
2023/03/18 05:19:46;;;;;;;18.27;3.80;;;;;;;6.74;48.53;101271.13;4972976;28;20039;-82
2023/03/18 05:22:12;;;;;;;10.25;4.10;;;;;;;6.81;48.87;101279.69;4973051;28;20038;-82
2023/03/18 05:24:39;;;;;;;16.83;5.07;;;;;;;6.88;48.87;101279.25;4972655;28;20031;-81
2023/03/18 05:27:05;;;;;;;6.32;3.85;;;;;;;7.00;48.69;101280.41;4973075;28;20033;-84
2023/03/18 05:29:31;;;;;;;8.95;4.03;;;;;;;7.06;48.55;101277.38;4972943;28;20109;-80
2023/03/18 05:31:56;;;;;;;10.75;3.78;;;;;;;6.99;49.07;101270.63;4972983;28;20542;-82
2023/03/18 05:34:22;;;;;;;10.43;4.28;;;;;;;7.15;48.23;101276.84;4985725;28;20030;-81
2023/03/18 05:36:47;;;;;;;11.73;3.78;;;;;;;7.15;48.60;101271.50;4987216;28;20093;-80
2023/03/18 05:39:13;;;;;;;13.75;4.97;;;;;;;7.05;48.08;101254.25;4977984;28;20069;-80
2023/03/18 05:41:38;;;;;;;11.00;4.40;;;;;;;6.98;48.28;101284.94;4972643;28;20031;-81
2023/03/18 05:44:04;;;;;;;18.17;4.55;;;;;;;6.97;48.86;101280.56;4973131;28;20031;-81
2023/03/18 05:46:30;;;;;;;13.10;5.28;;;;;;;6.94;48.64;101278.06;4972502;28;20060;-81
2023/03/18 05:48:56;;;;;;;16.13;5.25;;;;;;;6.97;48.82;101269.88;4975699;28;20035;-83
2023/03/18 05:51:22;;;;;;;12.63;5.78;;;;;;;6.81;48.73;101287.69;4974284;28;20038;-83
2023/03/18 05:53:47;;;;;;;23.63;7.38;;;;;;;6.87;48.91;101287.38;4971316;28;20026;-81
2023/03/18 05:56:13;;;;;;;20.98;8.23;;;;;;;6.94;48.43;101294.94;4972544;28;20086;-82
2023/03/18 05:58:39;;;;;;;21.50;8.10;;;;;;;7.02;48.81;101289.19;4972677;28;20026;-85
2023/03/18 06:01:06;;;;;;;26.38;7.18;;;;;;;7.08;48.77;101299.53;4977323;28;20034;-85
2023/03/18 06:03:33;;;;;;;17.45;5.55;;;;;;;7.14;48.71;101296.50;4974781;28;20478;-81
2023/03/18 06:06:00;;;;;;;13.45;5.82;;;;;;;7.11;48.81;101291.34;4984074;28;20042;-87
2023/03/18 06:08:26;;;;;;;17.90;5.93;;;;;;;7.25;48.29;101299.44;4984766;28;20054;-88
2023/03/18 06:10:53;;;;;;;13.00;5.13;;;;;;;7.24;48.61;101302.22;4988522;28;20031;-87
2023/03/18 06:13:19;;;;;;;8.85;5.10;;;;;;;7.19;49.00;101299.78;4985898;28;20066;-84
2023/03/18 06:15:45;;;;;;;21.15;5.50;;;;;;;7.32;49.03;101306.16;4990129;28;20022;-85
2023/03/18 06:18:11;;;;;;;15.18;5.90;;;;;;;7.44;48.98;101296.56;4986102;28;20030;-85
2023/03/18 06:20:37;;;;;;;9.70;5.28;;;;;;;7.56;48.90;101306.56;4978521;28;20494;-88
2023/03/18 06:23:04;;;;;;;19.35;5.43;;;;;;;7.59;48.98;101306.38;4982667;28;20085;-90
2023/03/18 06:25:30;;;;;;;21.40;5.97;;;;;;;7.61;48.81;101301.81;4977755;28;20056;-89
2023/03/18 06:27:56;;;;;;;16.02;6.82;;;;;;;7.66;48.87;101311.31;4973772;28;20402;-85
2023/03/18 06:30:21;;;;;;;20.48;6.43;;;;;;;7.66;49.46;101299.72;4974627;28;20110;-86
2023/03/18 06:32:47;;;;;;;14.40;6.78;;;;;;;7.68;49.04;101304.03;4983280;28;20066;-82
2023/03/18 06:35:14;;;;;;;16.05;5.95;;;;;;;7.74;49.85;101304.63;4989002;28;20097;-81
2023/03/18 06:37:40;;;;;;;22.77;6.03;;;;;;;7.68;49.79;101298.69;4980568;28;20039;-85
2023/03/18 06:40:07;;;;;;;28.33;6.18;;;;;;;7.73;49.65;101309.13;4973392;28;21479;-84
2023/03/18 06:42:32;;;;;;;30.00;7.50;;;;;;;7.87;50.41;101305.63;4972974;28;20037;-84
2023/03/18 06:44:58;;;;;;;18.00;5.32;;;;;;;7.88;49.63;101304.69;4972984;28;20026;-85
2023/03/18 06:47:24;;;;;;;17.02;6.10;;;;;;;8.05;49.97;101301.84;4972422;28;20031;-84
2023/03/18 06:49:50;;;;;;;20.98;5.47;;;;;;;8.09;49.59;101298.03;4972187;28;20088;-82
2023/03/18 06:52:17;;;;;;;17.58;5.25;;;;;;;8.17;49.39;101291.25;4971451;28;20057;-82
2023/03/18 06:54:44;;;;;;;38.75;6.93;;;;;;;8.31;49.02;101295.81;4971491;28;20370;-82
2023/03/18 06:57:10;;;;;;;18.27;5.80;;;;;;;8.42;49.83;101301.38;4971963;28;20090;-79
2023/03/18 06:59:37;;;;;;;18.85;6.70;;;;;;;8.64;49.24;101300.91;4971385;28;20583;-79
2023/03/18 07:02:04;;;;;;;18.65;5.60;;;;;;;8.85;48.83;101304.03;4963595;28;20034;-81
2023/03/18 07:04:29;;;;;;;13.85;5.53;;;;;;;8.85;48.74;101304.03;4965399;28;20032;-81
2023/03/18 07:06:56;;;;;;;16.23;5.72;;;;;;;8.71;49.56;101289.66;4963547;28;20039;-81
2023/03/18 07:09:23;;;;;;;25.67;6.68;;;;;;;8.99;48.72;101290.63;4958635;28;20540;-79
2023/03/18 07:11:49;;;;;;;31.00;7.40;;;;;;;9.22;48.81;101282.81;4952156;28;20031;-81
2023/03/18 07:14:15;;;;;;;22.08;7.13;;;;;;;9.24;48.90;101280.00;4951909;28;20833;-84
2023/03/18 07:16:40;;;;;;;13.43;6.15;;;;;;;9.43;48.52;101288.56;4952144;28;20030;-84
2023/03/18 07:19:06;;;;;;;18.90;6.68;;;;;;;9.46;48.13;101279.44;4952490;28;20027;-78
2023/03/18 07:21:32;;;;;;;18.15;7.50;;;;;;;9.63;47.79;101282.72;4952392;28;20023;-84
2023/03/18 07:23:58;;;;;;;21.98;5.75;;;;;;;9.70;47.66;101278.69;4952093;28;20034;-83
2023/03/18 07:26:24;;;;;;;21.90;6.63;;;;;;;9.61;47.94;101292.72;4965168;28;20023;-81
2023/03/18 07:28:50;;;;;;;29.98;7.93;;;;;;;9.68;48.27;101294.03;4972534;28;20030;-80
2023/03/18 07:31:16;;;;;;;24.15;6.88;;;;;;;9.58;48.18;101295.63;4968283;28;20438;-81
2023/03/18 07:33:41;;;;;;;24.90;9.93;;;;;;;9.56;48.35;101297.56;4966187;28;20031;-81
2023/03/18 07:36:07;;;;;;;33.85;9.40;;;;;;;9.34;48.56;101297.25;4960257;28;20042;-82
2023/03/18 07:38:33;;;;;;;51.60;9.68;;;;;;;9.13;49.32;101290.59;4951917;28;20074;-82
2023/03/18 07:40:58;;;;;;;11.00;6.97;;;;;;;9.20;48.92;101297.28;4951250;28;20031;-81
2023/03/18 07:43:24;;;;;;;21.85;7.93;;;;;;;9.17;49.74;101302.84;4951762;28;20027;-81
2023/03/18 07:45:49;;;;;;;18.65;8.70;;;;;;;9.15;49.51;101297.56;4951797;28;20031;-80
2023/03/18 07:48:14;;;;;;;21.63;8.57;;;;;;;9.03;50.09;101294.81;4933642;29;20513;-82
2023/03/18 07:50:40;;;;;;;15.77;6.78;;;;;;;9.06;50.36;101276.69;4951579;28;20042;-81
2023/03/18 07:53:06;;;;;;;140.57;18.58;;;;;;;9.27;49.97;101299.47;4950875;28;20554;-80
2023/03/18 07:55:31;;;;;;;48.72;9.93;;;;;;;9.38;50.05;101304.13;4951333;28;20043;-80
2023/03/18 07:57:58;;;;;;;54.40;11.88;;;;;;;9.38;50.33;101282.66;4950519;28;20035;-80
2023/03/18 08:00:24;;;;;;;37.05;10.52;;;;;;;9.58;50.22;101303.66;4949184;29;20039;-81
2023/03/18 08:02:50;;;;;;;15.07;6.85;;;;;;;9.61;50.42;101316.03;4951348;28;20036;-80
2023/03/18 08:05:17;;;;;;;19.52;7.65;;;;;;;9.57;50.62;101310.00;4951380;28;20042;-80
2023/03/18 08:07:43;;;;;;;24.00;9.18;;;;;;;9.50;51.19;101307.84;4950956;28;20499;-80
2023/03/18 08:10:10;;;;;;;24.95;8.18;;;;;;;9.55;51.58;101311.94;4951844;28;20043;-81
2023/03/18 08:12:36;;;;;;;13.95;8.38;;;;;;;9.56;51.80;101313.66;4951538;28;20031;-81
2023/03/18 08:15:01;;;;;;;34.65;10.15;;;;;;;9.75;51.83;101298.03;4951924;28;20534;-80
2023/03/18 08:17:27;;;;;;;33.58;10.00;;;;;;;10.10;51.76;101302.84;4952000;28;20043;-80
2023/03/18 08:19:52;;;;;;;21.63;8.73;;;;;;;10.38;51.10;101303.53;4952155;28;20039;-81
2023/03/18 08:22:18;;;;;;;21.58;8.20;;;;;;;10.58;49.77;101296.75;4955436;29;20027;-83
2023/03/18 08:24:44;;;;;;;21.85;8.77;;;;;;;10.68;49.94;101297.84;4958001;28;20091;-81
2023/03/18 08:27:09;;;;;;;20.05;9.30;;;;;;;10.70;49.77;101297.75;4968300;28;20103;-81
2023/03/18 08:29:35;;;;;;;41.15;11.13;;;;;;;11.00;50.03;101298.22;4969940;28;20039;-80
2023/03/18 08:32:01;;;;;;;21.60;9.50;;;;;;;11.17;49.60;101299.66;4967888;28;20016;-81
2023/03/18 08:34:26;;;;;;;22.77;9.82;;;;;;;11.29;48.71;101301.47;4963825;28;20035;-82
2023/03/18 08:36:52;;;;;;;26.58;11.20;;;;;;;11.51;49.04;101315.06;4955732;28;20082;-80
2023/03/18 08:39:17;;;;;;;16.88;9.77;;;;;;;11.53;49.16;101294.25;4955252;28;20041;-82
2023/03/18 08:41:43;;;;;;;21.98;11.27;;;;;;;11.74;48.16;101291.84;4954732;28;20514;-81
2023/03/18 08:44:09;;;;;;;36.35;9.82;;;;;;;11.79;47.84;101314.75;4954991;28;20023;-82
2023/03/18 08:46:36;;;;;;;41.83;12.38;;;;;;;11.87;48.38;101320.41;4954359;28;20490;-81
2023/03/18 08:49:02;;;;;;;24.90;11.88;;;;;;;11.95;48.17;101307.25;4954839;28;20031;-82
2023/03/18 08:51:28;;;;;;;25.52;11.73;;;;;;;12.14;47.47;101317.44;4954400;28;20049;-80
2023/03/18 08:53:54;;;;;;;25.08;10.20;;;;;;;11.96;48.05;101317.03;4955024;28;20032;-81
2023/03/18 08:56:19;;;;;;;28.80;10.52;;;;;;;11.85;48.91;101306.22;4954546;28;20066;-81
2023/03/18 08:58:45;;;;;;;33.35;10.85;;;;;;;11.89;48.26;101312.22;4955603;28;20027;-80
2023/03/18 09:01:11;;;;;;;14.63;8.65;;;;;;;11.91;48.41;101311.13;4955092;28;20066;-81
2023/03/18 09:03:37;;;;;;;16.13;10.52;;;;;;;11.50;48.96;101323.28;4952556;29;20113;-82
2023/03/18 09:06:03;;;;;;;15.05;9.35;;;;;;;11.36;49.75;101310.81;4952506;29;20704;-80
2023/03/18 09:08:29;;;;;;;22.52;10.57;;;;;;;11.51;49.76;101316.91;4952593;29;20134;-83
2023/03/18 09:10:55;;;;;;;31.50;12.10;;;;;;;11.55;49.53;101302.22;4952523;28;20031;-81
2023/03/18 09:13:22;;;;;;;31.15;11.10;;;;;;;11.50;49.34;101291.78;4951484;28;20411;-81
2023/03/18 09:15:47;;;;;;;18.08;9.20;;;;;;;11.69;48.97;101302.91;4951050;28;20031;-81
2023/03/18 09:18:15;;;;;;;23.52;11.52;;;;;;;11.70;49.09;101301.97;4951133;28;20081;-81
2023/03/18 09:20:41;;;;;;;17.27;8.55;;;;;;;11.72;49.31;101308.09;4951751;28;20502;-81
2023/03/18 09:23:08;;;;;;;22.27;8.65;;;;;;;11.84;49.66;101309.88;4951981;28;20074;-82
2023/03/18 09:25:34;;;;;;;23.67;8.23;;;;;;;11.81;49.50;101288.53;4951253;28;20047;-80
2023/03/18 09:28:00;;;;;;;44.38;11.35;;;;;;;11.96;49.03;101303.53;4956927;29;20039;-80
2023/03/18 09:30:26;;;;;;;14.23;7.72;;;;;;;11.91;49.27;101297.66;4963120;28;20062;-81
2023/03/18 09:32:52;;;;;;;19.20;8.32;;;;;;;12.02;49.14;101294.97;4927635;29;20811;-81
2023/03/18 09:35:18;;;;;;;23.05;8.65;;;;;;;11.99;49.88;101297.06;4952604;28;20133;-80
2023/03/18 09:37:44;;;;;;;14.52;8.25;;;;;;;12.00;49.06;101283.47;4953418;28;20114;-80
2023/03/18 09:40:20;;;;;;;44.08;11.00;;;;;;;11.84;49.28;101279.34;4953328;28;20349;-82
2023/03/18 09:43:17;;;;;;;23.40;11.45;;;;;;;11.81;50.16;101298.47;4952750;28;20034;-80
2023/03/18 09:46:08;;;;;;;17.55;7.57;;;;;;;11.52;51.09;101287.16;4953364;29;20404;-80
2023/03/18 09:48:58;;;;;;;16.17;7.93;;;;;;;11.54;51.14;101301.38;4893123;29;20092;-79
2023/03/18 09:51:54;;;;;;;15.43;6.57;;;;;;;11.53;51.57;101305.03;4893748;29;20505;-83
2023/03/18 09:54:37;;;;;;;72.97;12.32;;;;;;;11.61;52.11;101299.94;4893551;29;20516;-81
2023/03/18 09:57:10;;;;;;;16.27;7.68;;;;;;;11.61;52.00;101297.25;4893703;29;20134;-80
2023/03/18 09:59:43;;;;;;;39.25;10.25;;;;;;;11.61;52.59;101312.56;4894198;29;20142;-81
2023/03/18 10:02:20;;;;;;;19.42;8.10;;;;;;;11.50;52.15;101299.88;4893503;29;20036;-80
2023/03/18 10:04:54;;;;;;;31.58;8.88;;;;;;;11.41;52.62;101295.16;4893119;29;20079;-81
2023/03/18 10:07:26;;;;;;;12.60;7.05;;;;;;;11.44;52.15;101289.56;4893021;29;20048;-81
2023/03/18 10:09:55;;;;;;;13.48;6.97;;;;;;;11.47;52.72;101286.63;4893150;29;20222;-82
2023/03/18 10:12:47;;;;;;;16.27;7.22;;;;;;;11.54;52.47;101290.59;4893412;29;20047;-80
2023/03/18 10:15:20;;;;;;;147.35;18.40;;;;;;;11.64;52.56;101288.94;4878030;29;20075;-81
2023/03/18 10:17:53;;;;;;;21.58;7.00;;;;;;;11.63;52.68;101279.13;4894970;29;20465;-82
2023/03/18 10:20:34;;;;;;;7.72;5.97;;;;;;;11.77;52.39;101272.75;4893026;29;20143;-80
2023/03/18 10:23:51;;;;;;;28.15;8.93;;;;;;;11.96;52.55;101276.59;4893296;29;20040;-81
2023/03/18 10:26:26;;;;;;;11.52;7.28;;;;;;;11.86;52.17;101267.47;4878747;29;20089;-83
2023/03/18 10:29:03;;;;;;;26.77;7.95;;;;;;;11.86;52.27;101264.78;4905865;29;20072;-80
2023/03/18 10:31:42;;;;;;;14.68;7.10;;;;;;;11.94;52.10;101259.69;4904567;29;20202;-81
2023/03/18 10:34:49;;;;;;;27.02;7.55;;;;;;;12.11;52.60;101265.63;4892539;29;20625;-81
2023/03/18 10:37:36;;;;;;;58.78;11.27;;;;;;;12.28;51.92;101265.16;4837165;29;20038;-82
2023/03/18 10:40:09;;;;;;;20.77;6.43;;;;;;;12.20;50.98;101262.19;4837239;29;20116;-81
2023/03/18 10:42:36;;;;;;;16.83;6.38;;;;;;;12.18;51.40;101258.75;4837688;29;20053;-81
2023/03/18 10:45:26;;;;;;;9.63;5.93;;;;;;;12.08;51.17;101264.00;4821617;29;20121;-82
2023/03/18 10:47:59;;;;;;;10.20;5.80;;;;;;;11.91;51.40;101265.31;4838020;29;20045;-82
2023/03/18 10:50:55;;;;;;;13.73;6.60;;;;;;;11.92;51.44;101253.56;4838147;29;20038;-80
2023/03/18 10:53:29;;;;;;;11.48;7.00;;;;;;;11.81;51.70;101258.91;4837124;29;20121;-80
2023/03/18 10:56:15;;;;;;;14.60;6.93;;;;;;;11.81;51.79;101256.19;4837059;29;20058;-82
2023/03/18 10:58:41;;;;;;;12.10;7.45;;;;;;;11.50;51.82;101239.78;4848133;29;20110;-83
2023/03/18 11:01:10;;;;;;;17.35;7.10;;;;;;;11.42;52.26;101254.66;4849282;29;20414;-80
2023/03/18 11:04:00;;;;;;;10.13;6.57;;;;;;;11.47;52.55;101251.59;4873804;29;20567;-81
2023/03/18 11:06:40;;;;;;;22.23;7.72;;;;;;;11.45;52.72;101250.88;4876103;29;20220;-80
2023/03/18 11:09:09;;;;;;;21.08;7.32;;;;;;;11.44;52.66;101246.44;4875371;29;20065;-82
2023/03/18 11:11:38;;;;;;;21.20;8.85;;;;;;;11.53;52.73;101242.22;4873431;29;20045;-82
2023/03/18 11:14:06;;;;;;;27.25;8.50;;;;;;;11.48;52.89;101239.88;4915844;29;20404;-80
2023/03/18 11:16:41;;;;;;;10.85;5.68;;;;;;;11.55;52.30;101238.44;4951330;28;20110;-81
2023/03/18 11:19:28;;;;;;;15.40;6.82;;;;;;;11.36;52.57;101230.88;4952574;28;20034;-81
2023/03/18 11:22:21;;;;;;;178.15;23.23;;;;;;;11.45;52.63;101232.03;4951262;28;20030;-83
2023/03/18 11:25:15;;;;;;;19.95;6.55;;;;;;;11.34;53.23;101240.06;4878899;29;20137;-82
2023/03/18 11:27:41;;;;;;;12.80;6.82;;;;;;;11.25;53.14;101240.75;4810631;29;20035;-80
2023/03/18 11:30:10;;;;;;;10.38;7.07;;;;;;;11.10;54.26;101236.50;4811927;29;20058;-81
2023/03/18 11:32:36;;;;;;;9.05;5.82;;;;;;;11.23;54.34;101231.91;4807696;29;20077;-83